Time;durP1;ratioP1;P1;durP2;ratioP2;P2;SDS_P1;SDS_P2;PMS_P1;PMS_P2;Temp;Humidity;BMP_temperature;BMP_pressure;BME280_temperature;BME280_humidity;BME280_pressure;Samples;Min_cycle;Max_cycle;Signal;HPM_P1;HPM_P2
2021/01/28 00:02:08;;;;;;;24.88;13.13;;;6.00;96.70;;;;;;5018366;28;20067;-73
2021/01/28 00:04:35;;;;;;;21.52;12.02;;;5.90;96.70;;;;;;5022198;28;20040;-73
2021/01/28 00:07:03;;;;;;;24.38;12.07;;;6.00;96.70;;;;;;5018985;28;20115;-73
2021/01/28 00:09:30;;;;;;;17.00;9.65;;;6.00;96.70;;;;;;5023142;28;20438;-73
2021/01/28 00:11:58;;;;;;;15.32;9.10;;;6.00;96.70;;;;;;5015452;28;20041;-73
2021/01/28 00:14:26;;;;;;;19.77;9.93;;;6.00;96.70;;;;;;5014625;28;20037;-73
2021/01/28 00:16:54;;;;;;;17.00;9.50;;;6.00;96.70;;;;;;5019680;28;20136;-73
2021/01/28 00:19:21;;;;;;;13.68;8.55;;;6.00;96.70;;;;;;4999974;28;20033;-73
2021/01/28 00:21:49;;;;;;;13.10;8.60;;;6.00;96.70;;;;;;5011309;28;20049;-73
2021/01/28 00:24:16;;;;;;;12.60;8.40;;;6.00;96.70;;;;;;5015714;28;20044;-73
2021/01/28 00:26:43;;;;;;;15.65;8.45;;;6.00;96.70;;;;;;5017321;28;20046;-73
2021/01/28 00:29:12;;;;;;;12.88;7.80;;;6.00;96.70;;;;;;4997397;28;20037;-73
2021/01/28 00:31:39;;;;;;;12.63;8.02;;;6.10;96.70;;;;;;5017409;28;20050;-73
2021/01/28 00:34:07;;;;;;;11.65;7.45;;;6.10;96.70;;;;;;5018211;28;20625;-73
2021/01/28 00:36:34;;;;;;;14.98;8.43;;;6.10;96.70;;;;;;5015710;28;20046;-73
2021/01/28 00:39:03;;;;;;;14.60;8.25;;;6.10;96.70;;;;;;5017395;28;20124;-73
2021/01/28 00:41:31;;;;;;;12.55;8.30;;;6.10;96.70;;;;;;5018700;28;20517;-73
2021/01/28 00:43:58;;;;;;;13.90;8.95;;;6.00;96.70;;;;;;4999116;28;20049;-74
2021/01/28 00:46:26;;;;;;;14.68;9.48;;;6.00;96.70;;;;;;5018868;28;20038;-73
2021/01/28 00:48:53;;;;;;;16.13;9.25;;;6.00;96.70;;;;;;5016604;28;20033;-73
2021/01/28 00:51:21;;;;;;;20.40;10.80;;;6.00;96.70;;;;;;5017448;28;20050;-73
2021/01/28 00:53:48;;;;;;;16.63;10.02;;;6.00;96.70;;;;;;5013534;28;20040;-73
2021/01/28 00:56:15;;;;;;;15.80;9.70;;;5.90;96.70;;;;;;5014016;28;20581;-70
2021/01/28 00:58:49;;;;;;;15.13;10.02;;;5.90;96.70;;;;;;5004924;28;20041;-71
2021/01/28 01:01:20;;;;;;;15.25;9.30;;;6.00;96.70;;;;;;5017210;28;20125;-72
2021/01/28 01:03:48;;;;;;;12.90;8.73;;;5.90;96.70;;;;;;5012893;28;20095;-73
2021/01/28 01:06:16;;;;;;;16.25;9.68;;;5.90;96.70;;;;;;5018304;28;20471;-73
2021/01/28 01:08:43;;;;;;;15.10;9.73;;;5.90;96.70;;;;;;5016893;28;20092;-73
2021/01/28 01:11:17;;;;;;;18.92;10.48;;;6.00;96.70;;;;;;5016180;28;20111;-73
2021/01/28 01:13:50;;;;;;;16.67;9.45;;;6.00;96.70;;;;;;5001013;28;20053;-73
2021/01/28 01:16:22;;;;;;;16.10;9.35;;;6.00;96.70;;;;;;5001589;28;20053;-73
2021/01/28 01:18:57;;;;;;;15.98;10.38;;;5.90;96.70;;;;;;5018472;28;20115;-73
2021/01/28 01:21:37;;;;;;;16.30;10.35;;;5.90;96.70;;;;;;5020156;28;20427;-73
2021/01/28 01:24:16;;;;;;;17.17;10.25;;;5.80;96.70;;;;;;5002277;28;20061;-73
2021/01/28 01:26:44;;;;;;;18.73;11.13;;;5.90;96.70;;;;;;5018008;28;20034;-73
2021/01/28 01:29:13;;;;;;;19.48;10.52;;;5.90;96.70;;;;;;5021261;28;20046;-74
2021/01/28 01:32:00;;;;;;;16.52;9.82;;;5.90;96.70;;;;;;5008142;28;20045;-73
2021/01/28 01:34:34;;;;;;;15.50;9.48;;;5.90;96.70;;;;;;5019466;28;20038;-73
2021/01/28 01:37:06;;;;;;;17.35;10.23;;;5.90;96.70;;;;;;5019643;28;20064;-73
2021/01/28 01:39:35;;;;;;;17.88;10.23;;;5.90;96.70;;;;;;5001890;28;20061;-74
2021/01/28 01:42:06;;;;;;;17.15;10.40;;;5.90;96.70;;;;;;5021408;28;20452;-73
2021/01/28 01:44:33;;;;;;;14.52;9.38;;;5.90;96.70;;;;;;5018204;28;20147;-73
2021/01/28 01:47:29;;;;;;;;;;;5.90;96.70;;;;;;5023251;28;20570;-73
2021/01/28 01:49:58;;;;;;;14.95;8.55;;;5.90;96.70;;;;;;5021435;28;19994;-73
2021/01/28 01:52:32;;;;;;;16.42;9.30;;;5.90;96.70;;;;;;5025070;28;20030;-73
2021/01/28 01:55:02;;;;;;;15.50;9.40;;;5.90;96.70;;;;;;5020086;28;20056;-73
2021/01/28 01:57:38;;;;;;;16.13;10.00;;;5.90;96.70;;;;;;5019017;28;20045;-73
2021/01/28 02:00:18;;;;;;;16.23;10.00;;;5.90;96.70;;;;;;5021171;28;20037;-73
2021/01/28 02:02:56;;;;;;;14.20;9.82;;;5.80;96.70;;;;;;5020271;28;20128;-73
2021/01/28 02:05:37;;;;;;;16.42;9.55;;;5.80;96.70;;;;;;5007152;28;20041;-73
2021/01/28 02:08:14;;;;;;;16.75;9.60;;;5.80;96.70;;;;;;5014637;28;20041;-73
2021/01/28 02:10:51;;;;;;;12.93;8.90;;;5.70;96.70;;;;;;5039099;28;20052;-73
2021/01/28 02:13:32;;;;;;;15.23;9.60;;;5.70;96.70;;;;;;5017968;28;20136;-73
2021/01/28 02:16:13;;;;;;;17.77;10.40;;;5.70;96.70;;;;;;5017438;28;20151;-73
2021/01/28 02:18:47;;;;;;;18.95;8.77;;;5.70;96.70;;;;;;5019068;28;20045;-73
2021/01/28 02:21:27;;;;;;;16.60;9.73;;;5.70;96.70;;;;;;5020467;28;20042;-73
2021/01/28 02:24:26;;;;;;;16.33;9.70;;;5.70;96.70;;;;;;5015737;28;20056;-73
2021/01/28 02:26:55;;;;;;;14.77;9.75;;;5.60;96.70;;;;;;5025668;28;20487;-73
2021/01/28 02:29:32;;;;;;;17.27;10.32;;;5.60;96.70;;;;;;5022691;28;20038;-72
2021/01/28 02:32:02;;;;;;;14.57;9.90;;;5.60;96.70;;;;;;5015778;28;20402;-73
2021/01/28 02:34:36;;;;;;;16.13;10.38;;;5.60;96.70;;;;;;5020523;28;20037;-72
2021/01/28 02:37:13;;;;;;;17.88;10.63;;;5.70;96.70;;;;;;5019253;28;20520;-73
2021/01/28 02:39:50;;;;;;;13.35;9.85;;;5.60;96.70;;;;;;5020867;28;20539;-73
2021/01/28 02:42:27;;;;;;;15.88;10.52;;;5.50;96.70;;;;;;5007538;28;20091;-73
2021/01/28 02:45:04;;;;;;;12.82;8.98;;;5.60;96.70;;;;;;5025307;28;20517;-73
2021/01/28 02:47:41;;;;;;;14.57;9.30;;;5.60;96.70;;;;;;5019687;28;20041;-73
2021/01/28 02:50:18;;;;;;;;;;;5.60;96.70;;;;;;5018870;28;20041;-73
2021/01/28 02:52:45;;;;;;;12.75;9.27;;;5.60;96.70;;;;;;5020896;28;19947;-73
2021/01/28 02:55:16;;;;;;;16.80;9.50;;;5.60;96.70;;;;;;5021198;28;20064;-74
2021/01/28 02:57:44;;;;;;;14.15;8.93;;;5.60;96.70;;;;;;5021342;28;20044;-73
2021/01/28 03:00:15;;;;;;;15.45;9.35;;;5.60;96.70;;;;;;5003907;28;20053;-73
2021/01/28 03:02:43;;;;;;;17.27;9.45;;;5.50;96.70;;;;;;5022259;28;20041;-73
2021/01/28 03:05:12;;;;;;;14.57;9.15;;;5.50;96.70;;;;;;5025346;28;20260;-73
2021/01/28 03:07:41;;;;;;;13.25;8.25;;;5.50;96.70;;;;;;5022384;28;20041;-74
2021/01/28 03:10:11;;;;;;;17.02;8.82;;;5.60;96.70;;;;;;5024792;28;20037;-73
2021/01/28 03:12:58;;;;;;;14.90;9.13;;;5.50;96.70;;;;;;5029005;28;20033;-73
2021/01/28 03:15:39;;;;;;;14.82;9.25;;;5.50;96.70;;;;;;5018489;28;20422;-73
2021/01/28 03:18:07;;;;;;;11.75;8.25;;;5.40;96.70;;;;;;5020655;28;20191;-74
2021/01/28 03:20:37;;;;;;;13.07;8.88;;;5.40;96.70;;;;;;5018998;28;20037;-73
2021/01/28 03:23:13;;;;;;;12.50;8.65;;;5.40;96.70;;;;;;5029700;28;20049;-75
2021/01/28 03:25:51;;;;;;;14.02;9.10;;;5.40;96.70;;;;;;5022333;28;20041;-73
2021/01/28 03:28:21;;;;;;;15.95;8.95;;;5.30;96.70;;;;;;5003896;28;20053;-73
2021/01/28 03:30:54;;;;;;;14.60;9.57;;;5.20;96.70;;;;;;5018531;28;23378;-73
2021/01/28 03:33:22;;;;;;;17.55;9.05;;;5.20;96.70;;;;;;5028905;28;20045;-73
2021/01/28 03:35:50;;;;;;;14.05;8.82;;;5.20;96.70;;;;;;5016955;28;20153;-73
2021/01/28 03:38:19;;;;;;;14.20;9.20;;;5.00;96.70;;;;;;5017470;28;20076;-73
2021/01/28 03:40:52;;;;;;;18.63;9.80;;;5.00;96.70;;;;;;5002147;28;20364;-73
2021/01/28 03:43:21;;;;;;;16.40;10.13;;;5.10;96.70;;;;;;5017750;28;20050;-73
2021/01/28 03:45:51;;;;;;;14.98;9.00;;;5.20;96.70;;;;;;5017514;28;20519;-73
2021/01/28 03:48:19;;;;;;;14.65;9.43;;;5.20;96.70;;;;;;5021703;28;20466;-73
2021/01/28 03:50:56;;;;;;;13.80;8.98;;;5.20;96.70;;;;;;5015566;28;20127;-73
2021/01/28 03:53:34;;;;;;;15.07;9.68;;;5.20;96.70;;;;;;5017843;28;20111;-74
2021/01/28 03:56:15;;;;;;;14.95;9.18;;;5.30;96.70;;;;;;5018750;28;20053;-73
2021/01/28 03:58:44;;;;;;;14.00;9.63;;;5.30;96.70;;;;;;5012152;28;20518;-71
2021/01/28 04:01:26;;;;;;;17.73;9.15;;;5.20;96.70;;;;;;5001392;28;20102;-71
2021/01/28 04:04:03;;;;;;;13.63;8.55;;;5.30;96.70;;;;;;5014102;28;20049;-71
2021/01/28 04:06:40;;;;;;;14.82;8.38;;;5.30;96.70;;;;;;5003118;28;20056;-71
2021/01/28 04:09:16;;;;;;;13.63;8.50;;;5.20;96.70;;;;;;5018594;28;20825;-71
2021/01/28 04:11:54;;;;;;;16.02;9.82;;;5.10;96.70;;;;;;5018323;28;20038;-72
2021/01/28 04:14:42;;;;;;;15.75;10.10;;;5.00;96.70;;;;;;5006668;28;20050;-71
2021/01/28 04:17:12;;;;;;;14.80;9.68;;;5.10;96.70;;;;;;5013178;28;20041;-71
2021/01/28 04:19:41;;;;;;;15.00;9.90;;;5.10;96.70;;;;;;5001522;28;20450;-71
2021/01/28 04:22:09;;;;;;;18.02;10.05;;;5.20;96.70;;;;;;5021183;28;20056;-71
2021/01/28 04:24:39;;;;;;;16.13;10.20;;;5.10;96.70;;;;;;5001154;28;20041;-73
2021/01/28 04:27:07;;;;;;;15.88;9.32;;;5.20;96.70;;;;;;5023220;28;20069;-74
2021/01/28 04:29:50;;;;;;;14.85;9.45;;;5.20;96.70;;;;;;5021178;28;20056;-73
2021/01/28 04:32:26;;;;;;;;;;;5.20;96.70;;;;;;5001000;28;20044;-73
2021/01/28 04:35:04;;;;;;;12.60;7.82;;;5.20;96.70;;;;;;5019687;28;20039;-74
2021/01/28 04:37:32;;;;;;;15.75;8.50;;;5.20;96.70;;;;;;5016822;28;20065;-73
2021/01/28 04:40:08;;;;;;;17.80;9.45;;;5.20;96.70;;;;;;5021006;28;20390;-73
2021/01/28 04:42:41;;;;;;;13.50;8.43;;;5.10;96.70;;;;;;5021041;28;20502;-73
2021/01/28 04:45:12;;;;;;;14.23;8.30;;;5.10;96.70;;;;;;5019786;28;20053;-73
2021/01/28 04:47:46;;;;;;;15.95;9.77;;;5.10;96.70;;;;;;5017937;28;20570;-73
2021/01/28 04:50:26;;;;;;;15.18;9.70;;;5.20;96.70;;;;;;5015799;28;20090;-73
2021/01/28 04:53:12;;;;;;;15.90;9.15;;;5.20;96.70;;;;;;5021075;28;20041;-73
2021/01/28 04:55:54;;;;;;;14.63;9.95;;;5.20;96.70;;;;;;5034562;28;20056;-73
2021/01/28 04:58:23;;;;;;;13.85;10.02;;;5.20;96.70;;;;;;5021925;28;20065;-73
2021/01/28 05:01:00;;;;;;;14.02;9.48;;;5.20;96.70;;;;;;5000677;28;20037;-74
2021/01/28 05:03:42;;;;;;;17.65;9.32;;;5.30;96.70;;;;;;5017095;28;20049;-74
2021/01/28 05:06:24;;;;;;;15.32;9.35;;;5.20;96.70;;;;;;5013633;28;20050;-73
2021/01/28 05:09:01;;;;;;;15.75;10.45;;;5.20;96.70;;;;;;5019750;28;20044;-73
2021/01/28 05:11:53;;;;;;;14.32;10.48;;;5.30;96.70;;;;;;5005503;28;20080;-73
2021/01/28 05:14:32;;;;;;;15.38;10.38;;;5.30;96.70;;;;;;5000409;28;20064;-73
2021/01/28 05:17:20;;;;;;;17.73;11.48;;;5.40;96.70;;;;;;5022173;28;20041;-73
2021/01/28 05:20:01;;;;;;;16.63;11.00;;;5.30;96.70;;;;;;5024481;28;20389;-74
2021/01/28 05:22:57;;;;;;;16.90;10.65;;;5.40;96.70;;;;;;5023534;28;20530;-74
2021/01/28 05:25:38;;;;;;;16.60;10.93;;;5.40;96.70;;;;;;5016970;28;20046;-73
2021/01/28 05:28:20;;;;;;;15.90;10.38;;;5.40;96.70;;;;;;5022641;28;20901;-73
2021/01/28 05:30:50;;;;;;;14.73;9.82;;;5.40;96.70;;;;;;5018333;28;20099;-74
2021/01/28 05:33:30;;;;;;;14.95;10.35;;;5.40;96.70;;;;;;5022474;28;20048;-74
2021/01/28 05:36:14;;;;;;;16.05;10.02;;;5.40;96.70;;;;;;5022082;28;20672;-73
2021/01/28 05:39:20;;;;;;;18.48;10.88;;;5.40;96.70;;;;;;5003438;28;20053;-72
2021/01/28 05:41:51;;;;;;;13.48;9.52;;;5.30;96.70;;;;;;5023904;28;20045;-73
2021/01/28 05:44:23;;;;;;;16.27;10.60;;;5.30;96.70;;;;;;5021118;28;20352;-73
2021/01/28 05:47:02;;;;;;;18.05;10.90;;;5.30;96.70;;;;;;5014266;28;20041;-73
2021/01/28 05:49:42;;;;;;;15.77;10.27;;;5.30;96.70;;;;;;5016358;28;20481;-74
2021/01/28 05:52:19;;;;;;;16.08;10.80;;;5.30;96.70;;;;;;5022997;28;20095;-73
2021/01/28 05:55:08;;;;;;;17.77;9.93;;;5.30;96.70;;;;;;5022650;28;20053;-72
2021/01/28 05:57:53;;;;;;;13.75;9.25;;;5.30;96.70;;;;;;5022946;28;20045;-74
2021/01/28 06:00:32;;;;;;;16.00;10.88;;;5.30;96.70;;;;;;5027428;28;20145;-73
2021/01/28 06:03:31;;;;;;;14.40;10.38;;;5.30;96.70;;;;;;5011114;28;20042;-73
2021/01/28 06:06:25;;;;;;;15.10;10.45;;;5.30;96.70;;;;;;5020832;28;20131;-73
2021/01/28 06:09:21;;;;;;;19.42;10.55;;;5.30;96.70;;;;;;5013593;28;20054;-73
2021/01/28 06:12:04;;;;;;;17.30;10.35;;;5.30;96.70;;;;;;5023573;28;20065;-73
2021/01/28 06:14:53;;;;;;;13.25;9.77;;;5.40;96.70;;;;;;5006908;28;20044;-73
2021/01/28 06:17:52;;;;;;;15.45;10.35;;;5.40;96.70;;;;;;5021180;28;20060;-73
2021/01/28 06:20:52;;;;;;;17.40;11.43;;;5.40;96.70;;;;;;5022824;28;20262;-74
2021/01/28 06:23:37;;;;;;;17.63;11.35;;;5.40;96.70;;;;;;4995436;28;20046;-73
2021/01/28 06:26:19;;;;;;;13.35;10.30;;;5.30;96.70;;;;;;5022822;28;20100;-73
2021/01/28 06:29:13;;;;;;;14.15;11.00;;;5.40;96.70;;;;;;5020166;28;20443;-73
2021/01/28 06:31:52;;;;;;;16.85;9.60;;;5.40;96.70;;;;;;5024094;28;20084;-73
2021/01/28 06:34:50;;;;;;;15.85;10.95;;;5.40;96.70;;;;;;5007497;28;20038;-73
2021/01/28 06:37:42;;;;;;;17.15;10.88;;;5.40;96.70;;;;;;5008865;28;20483;-74
2021/01/28 06:40:35;;;;;;;15.10;10.90;;;5.40;96.70;;;;;;5022372;28;20049;-73
2021/01/28 06:43:16;;;;;;;16.67;11.00;;;5.40;96.70;;;;;;5020678;28;20030;-73
2021/01/28 06:45:58;;;;;;;17.38;11.43;;;5.50;96.70;;;;;;4995806;28;20131;-73
2021/01/28 06:48:41;;;;;;;17.02;11.15;;;5.50;96.70;;;;;;5016756;28;20037;-71
2021/01/28 06:51:26;;;;;;;16.90;11.00;;;5.50;96.70;;;;;;5002225;28;20050;-71
2021/01/28 06:54:03;;;;;;;18.98;10.77;;;5.50;96.70;;;;;;5022952;28;20048;-72
2021/01/28 06:56:50;;;;;;;14.65;9.88;;;5.50;96.70;;;;;;5020248;28;20515;-71
2021/01/28 06:59:43;;;;;;;14.73;9.35;;;5.50;96.70;;;;;;5022139;28;20115;-71
2021/01/28 07:02:20;;;;;;;15.40;10.35;;;5.60;96.70;;;;;;5019100;28;20042;-72
2021/01/28 07:05:09;;;;;;;12.90;9.23;;;5.60;96.70;;;;;;5021311;28;20099;-72
2021/01/28 07:07:45;;;;;;;15.75;8.98;;;5.60;96.70;;;;;;5009204;28;20372;-72
2021/01/28 07:10:34;;;;;;;19.42;9.30;;;5.60;96.70;;;;;;5016557;28;20045;-72
2021/01/28 07:13:21;;;;;;;12.60;8.73;;;5.60;96.70;;;;;;5019310;28;20045;-71
2021/01/28 07:16:06;;;;;;;11.20;8.45;;;5.60;96.70;;;;;;5019588;28;20047;-71
2021/01/28 07:18:43;;;;;;;12.88;9.20;;;5.60;96.70;;;;;;5021429;28;20042;-72
2021/01/28 07:21:27;;;;;;;15.55;8.85;;;5.60;96.70;;;;;;5017662;28;20060;-74
2021/01/28 07:24:05;;;;;;;11.43;8.13;;;5.60;96.70;;;;;;5014950;28;20063;-75
2021/01/28 07:26:49;;;;;;;10.65;7.22;;;5.60;96.70;;;;;;5018089;28;20052;-73
2021/01/28 07:29:41;;;;;;;12.25;7.85;;;5.70;96.70;;;;;;5018698;28;20049;-73
2021/01/28 07:32:10;;;;;;;11.80;8.00;;;5.70;96.70;;;;;;5016670;28;20041;-74
2021/01/28 07:35:27;;;;;;;9.90;6.88;;;5.70;96.70;;;;;;5001116;28;20503;-73
2021/01/28 07:38:35;;;;;;;12.23;7.82;;;5.70;96.70;;;;;;5002412;28;20537;-73
2021/01/28 07:41:25;;;;;;;12.05;6.85;;;5.70;96.70;;;;;;5017435;28;20041;-74
2021/01/28 07:44:33;;;;;;;11.82;7.35;;;5.70;96.70;;;;;;5011685;28;20871;-74
2021/01/28 07:47:34;;;;;;;11.60;6.88;;;5.70;96.70;;;;;;5009991;28;20084;-73
2021/01/28 07:50:15;;;;;;;11.18;7.05;;;5.70;96.70;;;;;;5017870;28;20040;-74
2021/01/28 07:52:56;;;;;;;12.05;7.57;;;5.70;96.70;;;;;;5019162;28;20034;-74
2021/01/28 07:55:40;;;;;;;10.32;7.43;;;5.80;96.70;;;;;;5000018;28;20058;-74
2021/01/28 07:58:20;;;;;;;11.80;7.30;;;5.80;96.70;;;;;;5016191;28;20160;-74
2021/01/28 08:00:50;;;;;;;10.88;7.10;;;5.80;96.70;;;;;;5019666;28;20041;-73
2021/01/28 08:03:31;;;;;;;11.05;6.80;;;5.80;96.70;;;;;;5015581;28;20037;-74
2021/01/28 08:06:06;;;;;;;8.80;7.25;;;5.80;96.70;;;;;;5005968;28;20518;-73
2021/01/28 08:08:34;;;;;;;10.48;7.40;;;5.90;96.70;;;;;;5017873;28;20359;-74
2021/01/28 08:11:14;;;;;;;10.98;7.45;;;5.90;96.70;;;;;;5001806;28;20052;-73
2021/01/28 08:13:42;;;;;;;10.77;7.80;;;6.00;96.70;;;;;;5017954;28;20135;-73
2021/01/28 08:16:16;;;;;;;12.38;8.50;;;5.90;96.70;;;;;;5015371;28;20038;-73
2021/01/28 08:19:00;;;;;;;10.57;8.23;;;5.90;96.70;;;;;;5013418;28;20064;-73
2021/01/28 08:21:29;;;;;;;11.27;7.60;;;5.90;96.70;;;;;;5020638;28;20068;-73
2021/01/28 08:24:10;;;;;;;10.90;7.47;;;5.90;96.70;;;;;;5017016;28;20048;-73
2021/01/28 08:26:42;;;;;;;14.27;8.48;;;5.90;96.70;;;;;;5004292;28;20132;-73
2021/01/28 08:29:14;;;;;;;12.15;7.40;;;5.90;96.70;;;;;;4991930;28;20048;-74
2021/01/28 08:31:44;;;;;;;11.15;7.05;;;5.90;96.70;;;;;;5016813;28;20137;-72
2021/01/28 08:34:17;;;;;;;12.70;6.95;;;5.90;96.70;;;;;;5001207;28;20044;-71
2021/01/28 08:36:48;;;;;;;9.80;7.00;;;5.90;96.70;;;;;;5017116;28;20048;-74
2021/01/28 08:39:19;;;;;;;10.75;6.78;;;5.90;96.70;;;;;;5015125;28;20360;-73
2021/01/28 08:42:00;;;;;;;15.15;6.65;;;5.90;96.70;;;;;;5010805;28;20045;-71
2021/01/28 08:44:27;;;;;;;11.20;7.78;;;5.90;96.70;;;;;;4998691;28;20049;-73
2021/01/28 08:47:06;;;;;;;14.23;7.18;;;6.00;96.70;;;;;;5015621;28;20128;-71
2021/01/28 08:49:35;;;;;;;12.18;7.13;;;5.90;96.70;;;;;;5019089;28;20049;-71
2021/01/28 08:52:05;;;;;;;10.90;6.72;;;6.00;96.70;;;;;;5020453;28;20604;-71
2021/01/28 08:54:36;;;;;;;10.77;7.25;;;6.00;96.70;;;;;;5004587;28;20378;-71
2021/01/28 08:57:06;;;;;;;12.20;7.88;;;6.00;96.70;;;;;;5021301;28;20059;-72
2021/01/28 08:59:41;;;;;;;12.52;7.97;;;6.10;96.70;;;;;;5002863;28;20042;-71
2021/01/28 09:02:12;;;;;;;12.13;8.10;;;6.10;96.70;;;;;;5017168;28;20068;-71
2021/01/28 09:04:45;;;;;;;12.73;8.65;;;6.20;96.70;;;;;;5021994;28;20411;-70
2021/01/28 09:07:23;;;;;;;14.48;8.65;;;6.20;96.70;;;;;;5009664;28;20060;-70
2021/01/28 09:10:01;;;;;;;13.95;9.23;;;6.20;96.70;;;;;;5020633;28;20119;-71
2021/01/28 09:12:34;;;;;;;13.80;9.20;;;6.30;96.70;;;;;;5020040;28;20045;-71
2021/01/28 09:15:10;;;;;;;15.10;9.70;;;6.30;96.70;;;;;;5023818;28;20061;-72
2021/01/28 09:17:40;;;;;;;13.70;9.80;;;6.40;96.70;;;;;;5017840;28;20049;-72
2021/01/28 09:20:21;;;;;;;15.90;9.52;;;6.40;96.70;;;;;;5019165;28;20056;-72
2021/01/28 09:22:49;;;;;;;17.60;11.30;;;6.40;96.70;;;;;;5016104;28;20057;-71
2021/01/28 09:25:21;;;;;;;17.02;11.50;;;6.50;96.70;;;;;;5002260;28;20704;-72
2021/01/28 09:28:00;;;;;;;20.52;12.00;;;6.50;96.70;;;;;;5021800;28;20264;-72
2021/01/28 09:30:34;;;;;;;17.33;10.90;;;6.60;96.70;;;;;;5019362;28;20442;-72
2021/01/28 09:33:24;;;;;;;15.32;9.82;;;6.60;96.70;;;;;;4995721;28;20052;-71
2021/01/28 09:36:02;;;;;;;17.60;10.57;;;6.60;96.70;;;;;;5019220;28;20441;-71
2021/01/28 09:38:30;;;;;;;14.18;10.65;;;6.70;96.70;;;;;;5014753;28;20046;-72
2021/01/28 09:41:14;;;;;;;14.80;10.23;;;6.70;96.70;;;;;;5018026;28;20506;-71
2021/01/28 09:43:43;;;;;;;13.75;10.25;;;6.80;96.70;;;;;;5018654;28;20111;-71
2021/01/28 09:46:22;;;;;;;14.52;9.23;;;6.90;96.70;;;;;;5017177;28;20239;-71
2021/01/28 09:48:52;;;;;;;15.13;8.90;;;7.00;96.70;;;;;;5001911;28;20123;-72
2021/01/28 09:51:26;;;;;;;14.88;9.02;;;7.00;96.70;;;;;;5017664;28;20132;-71
2021/01/28 09:54:11;;;;;;;14.07;9.32;;;7.00;96.70;;;;;;5015016;28;20041;-71
2021/01/28 09:56:38;;;;;;;13.07;9.07;;;7.10;96.20;;;;;;4991545;28;20049;-72
2021/01/28 09:59:06;;;;;;;12.15;7.80;;;7.10;95.90;;;;;;5016962;28;20165;-71
2021/01/28 10:01:34;;;;;;;12.23;8.38;;;7.20;95.70;;;;;;5018778;28;20054;-72
2021/01/28 10:04:01;;;;;;;13.88;8.68;;;7.30;95.40;;;;;;5017333;28;20450;-72
2021/01/28 10:06:30;;;;;;;12.20;8.48;;;7.30;95.00;;;;;;5005194;28;20521;-72
2021/01/28 10:08:59;;;;;;;13.23;9.13;;;7.30;95.10;;;;;;5004156;28;20065;-71
2021/01/28 10:11:27;;;;;;;13.68;9.40;;;7.40;95.30;;;;;;5008906;28;20577;-71
2021/01/28 10:13:55;;;;;;;12.73;8.73;;;7.50;94.70;;;;;;5021558;28;20048;-71
2021/01/28 10:16:22;;;;;;;13.32;8.77;;;7.60;94.70;;;;;;5023150;28;20042;-72
2021/01/28 10:18:50;;;;;;;13.70;9.40;;;7.50;94.10;;;;;;5020347;28;20096;-71
2021/01/28 10:21:18;;;;;;;12.77;8.65;;;7.50;94.20;;;;;;5017368;28;20511;-71
2021/01/28 10:23:46;;;;;;;13.15;9.38;;;7.50;94.30;;;;;;5021531;28;20046;-71
2021/01/28 10:26:13;;;;;;;13.77;9.00;;;7.50;94.70;;;;;;5024232;28;20133;-71
2021/01/28 10:28:41;;;;;;;13.98;9.82;;;7.50;94.80;;;;;;5001708;28;20048;-71
2021/01/28 10:31:09;;;;;;;17.13;9.77;;;7.60;94.70;;;;;;5025033;28;20041;-71
2021/01/28 10:33:38;;;;;;;13.45;9.48;;;7.60;95.00;;;;;;5020830;28;20394;-71
2021/01/28 10:36:07;;;;;;;15.07;9.90;;;7.70;95.10;;;;;;5026924;28;20043;-71
2021/01/28 10:38:35;;;;;;;15.40;10.73;;;7.70;95.00;;;;;;5009056;28;20073;-71
2021/01/28 10:41:05;;;;;;;12.15;9.85;;;7.70;95.10;;;;;;5019765;28;20046;-71
2021/01/28 10:43:32;;;;;;;14.23;9.80;;;7.70;95.40;;;;;;5020525;28;20671;-71
2021/01/28 10:46:00;;;;;;;13.80;9.50;;;7.70;95.50;;;;;;5002505;28;20099;-72
2021/01/28 10:48:27;;;;;;;16.55;9.88;;;7.70;95.70;;;;;;5021176;28;20042;-71
2021/01/28 10:50:55;;;;;;;14.80;9.40;;;7.60;96.10;;;;;;5017937;28;20068;-72
2021/01/28 10:53:23;;;;;;;14.77;9.77;;;7.60;96.30;;;;;;5021054;28;20046;-71
2021/01/28 10:55:51;;;;;;;11.95;8.60;;;7.60;96.60;;;;;;5003489;28;20495;-71
2021/01/28 10:58:26;;;;;;;11.95;9.00;;;7.60;96.60;;;;;;5022999;28;20056;-71
2021/01/28 11:00:54;;;;;;;13.73;9.30;;;7.70;96.70;;;;;;5019739;28;20080;-71
2021/01/28 11:03:22;;;;;;;15.32;10.45;;;7.70;96.70;;;;;;5019229;28;20043;-71
2021/01/28 11:05:50;;;;;;;14.38;10.18;;;7.80;96.70;;;;;;5020024;28;20471;-72
2021/01/28 11:08:17;;;;;;;14.85;10.25;;;7.80;96.50;;;;;;5020810;28;20087;-71
2021/01/28 11:10:46;;;;;;;14.98;11.07;;;7.70;96.40;;;;;;5016842;28;20091;-71
2021/01/28 11:13:13;;;;;;;15.93;10.15;;;7.70;96.60;;;;;;4995635;28;20129;-72
2021/01/28 11:15:42;;;;;;;14.18;10.55;;;7.60;96.50;;;;;;4999897;28;20041;-71
2021/01/28 11:18:11;;;;;;;13.93;9.85;;;7.60;96.70;;;;;;5005692;28;20503;-72
2021/01/28 11:20:39;;;;;;;14.13;9.48;;;7.60;96.70;;;;;;5001505;28;20107;-71
2021/01/28 11:23:06;;;;;;;17.40;12.65;;;7.60;96.50;;;;;;5020038;28;20418;-71
2021/01/28 11:25:34;;;;;;;19.23;12.60;;;7.60;96.60;;;;;;5020011;28;20507;-72
2021/01/28 11:28:03;;;;;;;17.60;12.32;;;7.60;96.70;;;;;;5004720;28;20533;-71
2021/01/28 11:30:32;;;;;;;18.88;12.80;;;7.50;96.70;;;;;;5018876;28;20385;-71
2021/01/28 11:33:01;;;;;;;18.55;12.95;;;7.50;96.70;;;;;;5022179;28;20140;-72
2021/01/28 11:35:31;;;;;;;20.10;13.70;;;7.40;96.70;;;;;;5021965;28;20041;-73
2021/01/28 11:37:58;;;;;;;20.90;15.30;;;7.40;96.70;;;;;;5022004;28;20042;-72
2021/01/28 11:40:28;;;;;;;19.05;13.48;;;7.40;96.70;;;;;;5014505;28;20049;-72
2021/01/28 11:42:57;;;;;;;18.15;13.20;;;7.30;96.70;;;;;;5025354;28;20049;-71
2021/01/28 11:45:26;;;;;;;22.20;14.45;;;7.30;96.70;;;;;;4999144;28;20046;-71
2021/01/28 11:47:54;;;;;;;19.52;14.68;;;7.30;96.70;;;;;;5019835;28;20495;-72
2021/01/28 11:50:23;;;;;;;21.40;14.35;;;7.30;96.70;;;;;;5018451;28;20061;-71
2021/01/28 11:52:50;;;;;;;22.17;16.42;;;7.30;96.70;;;;;;5033498;28;20419;-71
2021/01/28 11:55:20;;;;;;;21.73;15.20;;;7.30;96.70;;;;;;5017698;28;20045;-71
2021/01/28 11:57:49;;;;;;;19.83;14.82;;;7.30;96.70;;;;;;5020002;28;20037;-71
2021/01/28 12:00:18;;;;;;;26.30;19.73;;;7.30;96.70;;;;;;5017537;28;20124;-72
2021/01/28 12:02:46;;;;;;;27.48;18.35;;;7.30;96.70;;;;;;5018946;28;20050;-72
2021/01/28 12:05:16;;;;;;;27.10;19.60;;;7.40;96.70;;;;;;5020003;28;20595;-72
2021/01/28 12:07:44;;;;;;;21.00;16.63;;;7.40;96.70;;;;;;5020614;28;20140;-72
2021/01/28 12:10:16;;;;;;;22.15;16.17;;;7.40;96.70;;;;;;5002437;28;20051;-70
2021/01/28 12:12:47;;;;;;;23.98;16.10;;;7.40;96.70;;;;;;5017216;28;20053;-72
2021/01/28 12:15:15;;;;;;;23.05;15.73;;;7.40;96.70;;;;;;5021353;28;20038;-71
2021/01/28 12:17:43;;;;;;;21.80;15.68;;;7.40;96.70;;;;;;5024638;28;20593;-71
2021/01/28 12:20:12;;;;;;;23.55;17.13;;;7.40;96.70;;;;;;5017097;28;20037;-71
2021/01/28 12:22:40;;;;;;;20.10;14.32;;;7.40;96.70;;;;;;5020218;28;20053;-72
2021/01/28 12:25:08;;;;;;;20.77;15.05;;;7.40;96.70;;;;;;5021397;28;20045;-71
2021/01/28 12:27:37;;;;;;;23.15;15.43;;;7.40;96.30;;;;;;5016686;28;20514;-71
2021/01/28 12:30:07;;;;;;;22.73;14.70;;;7.40;96.50;;;;;;5001553;28;20385;-72
2021/01/28 12:32:35;;;;;;;19.88;14.07;;;7.40;95.80;;;;;;5015786;28;20045;-71
2021/01/28 12:35:02;;;;;;;19.75;15.13;;;7.40;95.60;;;;;;5013390;28;20993;-71
2021/01/28 12:37:30;;;;;;;22.15;16.85;;;7.40;95.00;;;;;;5002156;28;20491;-71
2021/01/28 12:39:57;;;;;;;29.10;20.38;;;7.40;94.10;;;;;;5017402;28;20038;-71
2021/01/28 12:42:27;;;;;;;21.52;15.25;;;7.40;93.80;;;;;;5019026;28;20506;-71
2021/01/28 12:44:55;;;;;;;27.67;19.15;;;7.40;93.70;;;;;;5023201;28;20128;-71
2021/01/28 12:47:22;;;;;;;28.48;20.20;;;7.40;93.70;;;;;;5016654;28;20033;-72
2021/01/28 12:49:50;;;;;;;25.33;18.52;;;7.40;93.30;;;;;;5022187;28;20641;-72
2021/01/28 12:52:17;;;;;;;19.50;15.15;;;7.40;93.70;;;;;;5018837;28;20507;-72
2021/01/28 12:54:45;;;;;;;20.63;15.55;;;7.30;93.80;;;;;;5020281;28;20037;-71
2021/01/28 12:57:12;;;;;;;23.02;17.45;;;7.30;94.30;;;;;;5020268;28;20045;-72
2021/01/28 12:59:41;;;;;;;20.30;14.38;;;7.30;94.90;;;;;;5014461;28;20424;-72
2021/01/28 13:02:08;;;;;;;17.17;12.75;;;7.30;95.60;;;;;;4998222;28;20042;-71
2021/01/28 13:04:36;;;;;;;18.73;13.00;;;7.30;96.50;;;;;;5017253;28;20123;-71
2021/01/28 13:07:03;;;;;;;20.92;14.05;;;7.40;96.70;;;;;;5015631;28;20056;-71
2021/01/28 13:09:31;;;;;;;16.40;12.80;;;7.40;96.70;;;;;;5020711;28;20067;-72
2021/01/28 13:11:58;;;;;;;17.52;12.52;;;7.50;96.70;;;;;;5014457;28;20712;-71
2021/01/28 13:14:26;;;;;;;16.90;11.95;;;7.50;96.70;;;;;;5018295;28;20049;-71
2021/01/28 13:16:54;;;;;;;15.70;12.27;;;7.50;96.70;;;;;;5017282;28;20212;-71
2021/01/28 13:19:22;;;;;;;19.83;14.30;;;7.50;96.70;;;;;;5016474;28;20107;-72
2021/01/28 13:21:49;;;;;;;21.23;14.90;;;7.50;96.70;;;;;;5015229;28;20041;-73